sensor_id;sensor_type;location;lat;lon;timestamp;P1;durP1;ratioP1;P2;durP2;ratioP2
43114;SDS011;28727;50.068;14.452;2023-04-28T00:01:52;21.10;;;11.15;;
43114;SDS011;28727;50.068;14.452;2023-04-28T00:04:24;23.58;;;11.20;;
43114;SDS011;28727;50.068;14.452;2023-04-28T00:06:57;18.15;;;11.20;;
43114;SDS011;28727;50.068;14.452;2023-04-28T00:09:31;24.10;;;11.30;;
43114;SDS011;28727;50.068;14.452;2023-04-28T00:12:02;19.40;;;10.75;;
43114;SDS011;28727;50.068;14.452;2023-04-28T00:14:34;25.30;;;13.45;;
43114;SDS011;28727;50.068;14.452;2023-04-28T00:17:06;23.40;;;12.82;;
43114;SDS011;28727;50.068;14.452;2023-04-28T00:19:40;23.80;;;13.23;;
43114;SDS011;28727;50.068;14.452;2023-04-28T00:22:12;28.23;;;14.93;;
43114;SDS011;28727;50.068;14.452;2023-04-28T00:24:44;33.83;;;18.92;;
43114;SDS011;28727;50.068;14.452;2023-04-28T00:27:16;30.02;;;18.20;;
43114;SDS011;28727;50.068;14.452;2023-04-28T00:29:48;25.65;;;16.48;;
43114;SDS011;28727;50.068;14.452;2023-04-28T00:32:20;27.05;;;17.13;;
43114;SDS011;28727;50.068;14.452;2023-04-28T00:34:52;29.33;;;16.60;;
43114;SDS011;28727;50.068;14.452;2023-04-28T00:37:23;30.92;;;16.27;;
43114;SDS011;28727;50.068;14.452;2023-04-28T00:39:55;26.20;;;15.75;;
43114;SDS011;28727;50.068;14.452;2023-04-28T00:42:28;24.00;;;14.50;;
43114;SDS011;28727;50.068;14.452;2023-04-28T00:45:00;24.70;;;14.98;;
43114;SDS011;28727;50.068;14.452;2023-04-28T00:47:37;25.05;;;14.68;;
43114;SDS011;28727;50.068;14.452;2023-04-28T00:50:09;26.65;;;15.27;;
43114;SDS011;28727;50.068;14.452;2023-04-28T00:52:41;27.05;;;13.88;;
43114;SDS011;28727;50.068;14.452;2023-04-28T00:55:14;26.17;;;15.43;;
43114;SDS011;28727;50.068;14.452;2023-04-28T00:57:47;31.17;;;13.95;;
43114;SDS011;28727;50.068;14.452;2023-04-28T01:00:18;25.77;;;14.93;;
43114;SDS011;28727;50.068;14.452;2023-04-28T01:02:51;24.73;;;14.07;;
43114;SDS011;28727;50.068;14.452;2023-04-28T01:05:25;24.33;;;14.13;;
43114;SDS011;28727;50.068;14.452;2023-04-28T01:07:57;32.03;;;16.17;;
43114;SDS011;28727;50.068;14.452;2023-04-28T01:10:29;23.83;;;14.45;;
43114;SDS011;28727;50.068;14.452;2023-04-28T01:13:07;26.58;;;14.07;;
43114;SDS011;28727;50.068;14.452;2023-04-28T01:15:38;26.00;;;13.68;;
43114;SDS011;28727;50.068;14.452;2023-04-28T01:18:10;26.48;;;13.93;;
43114;SDS011;28727;50.068;14.452;2023-04-28T01:20:42;26.65;;;14.38;;
43114;SDS011;28727;50.068;14.452;2023-04-28T01:23:15;25.30;;;13.63;;
43114;SDS011;28727;50.068;14.452;2023-04-28T01:25:48;22.83;;;13.02;;
43114;SDS011;28727;50.068;14.452;2023-04-28T01:28:19;25.27;;;11.93;;
43114;SDS011;28727;50.068;14.452;2023-04-28T01:30:51;21.55;;;12.38;;
43114;SDS011;28727;50.068;14.452;2023-04-28T01:33:24;22.25;;;12.60;;
43114;SDS011;28727;50.068;14.452;2023-04-28T01:35:57;21.67;;;12.73;;
43114;SDS011;28727;50.068;14.452;2023-04-28T01:38:29;23.45;;;12.20;;
43114;SDS011;28727;50.068;14.452;2023-04-28T01:41:01;19.73;;;11.73;;
43114;SDS011;28727;50.068;14.452;2023-04-28T01:43:35;21.40;;;11.97;;
43114;SDS011;28727;50.068;14.452;2023-04-28T01:46:06;22.42;;;12.50;;
43114;SDS011;28727;50.068;14.452;2023-04-28T01:48:38;17.80;;;12.10;;
43114;SDS011;28727;50.068;14.452;2023-04-28T01:51:10;19.88;;;11.50;;
43114;SDS011;28727;50.068;14.452;2023-04-28T01:53:45;25.67;;;12.18;;
43114;SDS011;28727;50.068;14.452;2023-04-28T01:56:16;23.67;;;12.35;;
43114;SDS011;28727;50.068;14.452;2023-04-28T01:58:49;22.98;;;12.93;;
43114;SDS011;28727;50.068;14.452;2023-04-28T02:01:21;22.75;;;12.45;;
43114;SDS011;28727;50.068;14.452;2023-04-28T02:03:55;22.20;;;12.98;;
43114;SDS011;28727;50.068;14.452;2023-04-28T02:06:27;20.23;;;11.63;;
43114;SDS011;28727;50.068;14.452;2023-04-28T02:09:02;23.65;;;12.18;;
43114;SDS011;28727;50.068;14.452;2023-04-28T02:11:33;19.05;;;11.05;;
43114;SDS011;28727;50.068;14.452;2023-04-28T02:14:05;23.33;;;12.70;;
43114;SDS011;28727;50.068;14.452;2023-04-28T02:16:37;19.63;;;12.40;;
43114;SDS011;28727;50.068;14.452;2023-04-28T02:19:09;22.83;;;11.85;;
43114;SDS011;28727;50.068;14.452;2023-04-28T02:21:43;18.73;;;12.32;;
43114;SDS011;28727;50.068;14.452;2023-04-28T02:24:17;18.95;;;11.60;;
43114;SDS011;28727;50.068;14.452;2023-04-28T02:26:49;22.88;;;13.10;;
43114;SDS011;28727;50.068;14.452;2023-04-28T02:29:21;22.83;;;12.18;;
43114;SDS011;28727;50.068;14.452;2023-04-28T02:31:53;23.10;;;12.55;;
43114;SDS011;28727;50.068;14.452;2023-04-28T02:34:25;24.73;;;12.98;;
43114;SDS011;28727;50.068;14.452;2023-04-28T02:36:57;22.10;;;12.40;;
43114;SDS011;28727;50.068;14.452;2023-04-28T02:39:30;23.45;;;12.88;;
43114;SDS011;28727;50.068;14.452;2023-04-28T02:42:04;21.48;;;13.05;;
43114;SDS011;28727;50.068;14.452;2023-04-28T02:47:14;21.52;;;13.13;;
43114;SDS011;28727;50.068;14.452;2023-04-28T02:49:46;25.10;;;13.23;;
43114;SDS011;28727;50.068;14.452;2023-04-28T02:52:19;20.83;;;12.60;;
43114;SDS011;28727;50.068;14.452;2023-04-28T02:54:51;23.30;;;13.40;;
43114;SDS011;28727;50.068;14.452;2023-04-28T02:57:25;22.85;;;13.70;;
43114;SDS011;28727;50.068;14.452;2023-04-28T02:59:57;19.60;;;11.93;;
43114;SDS011;28727;50.068;14.452;2023-04-28T03:02:32;21.73;;;12.73;;
43114;SDS011;28727;50.068;14.452;2023-04-28T03:05:04;19.77;;;12.05;;
43114;SDS011;28727;50.068;14.452;2023-04-28T03:07:36;24.92;;;13.48;;
43114;SDS011;28727;50.068;14.452;2023-04-28T03:10:08;22.83;;;12.73;;
43114;SDS011;28727;50.068;14.452;2023-04-28T03:12:44;21.13;;;12.18;;
43114;SDS011;28727;50.068;14.452;2023-04-28T03:15:16;24.10;;;13.15;;
43114;SDS011;28727;50.068;14.452;2023-04-28T03:17:49;29.00;;;13.63;;
43114;SDS011;28727;50.068;14.452;2023-04-28T03:20:21;27.02;;;13.98;;
43114;SDS011;28727;50.068;14.452;2023-04-28T03:22:53;25.40;;;14.05;;
43114;SDS011;28727;50.068;14.452;2023-04-28T03:25:25;29.35;;;15.48;;
43114;SDS011;28727;50.068;14.452;2023-04-28T03:27:57;31.92;;;16.77;;
43114;SDS011;28727;50.068;14.452;2023-04-28T03:30:30;28.25;;;17.70;;
43114;SDS011;28727;50.068;14.452;2023-04-28T03:33:02;30.75;;;18.73;;
43114;SDS011;28727;50.068;14.452;2023-04-28T03:35:34;28.98;;;17.27;;
43114;SDS011;28727;50.068;14.452;2023-04-28T03:38:06;29.35;;;17.33;;
43114;SDS011;28727;50.068;14.452;2023-04-28T03:40:39;25.63;;;16.13;;
43114;SDS011;28727;50.068;14.452;2023-04-28T03:43:13;26.15;;;16.15;;
43114;SDS011;28727;50.068;14.452;2023-04-28T03:45:56;24.27;;;15.82;;
43114;SDS011;28727;50.068;14.452;2023-04-28T03:48:28;27.38;;;15.52;;
43114;SDS011;28727;50.068;14.452;2023-04-28T03:51:00;26.40;;;15.13;;
43114;SDS011;28727;50.068;14.452;2023-04-28T03:53:32;30.13;;;15.50;;
43114;SDS011;28727;50.068;14.452;2023-04-28T03:56:07;28.00;;;16.13;;
43114;SDS011;28727;50.068;14.452;2023-04-28T03:58:39;31.63;;;16.10;;
43114;SDS011;28727;50.068;14.452;2023-04-28T04:01:11;26.38;;;15.98;;
43114;SDS011;28727;50.068;14.452;2023-04-28T04:03:43;26.17;;;15.57;;
43114;SDS011;28727;50.068;14.452;2023-04-28T04:06:15;28.50;;;15.52;;
43114;SDS011;28727;50.068;14.452;2023-04-28T04:08:50;28.70;;;14.98;;
43114;SDS011;28727;50.068;14.452;2023-04-28T04:11:22;34.90;;;15.57;;
43114;SDS011;28727;50.068;14.452;2023-04-28T04:13:54;27.85;;;14.85;;
43114;SDS011;28727;50.068;14.452;2023-04-28T04:16:28;27.75;;;15.90;;
43114;SDS011;28727;50.068;14.452;2023-04-28T04:19:03;25.75;;;14.32;;
43114;SDS011;28727;50.068;14.452;2023-04-28T04:21:44;26.55;;;14.93;;
43114;SDS011;28727;50.068;14.452;2023-04-28T04:24:16;28.55;;;15.65;;
43114;SDS011;28727;50.068;14.452;2023-04-28T04:26:50;27.75;;;15.13;;
43114;SDS011;28727;50.068;14.452;2023-04-28T04:29:36;24.13;;;13.77;;
43114;SDS011;28727;50.068;14.452;2023-04-28T04:32:15;25.20;;;13.45;;
43114;SDS011;28727;50.068;14.452;2023-04-28T04:34:51;23.80;;;13.65;;
43114;SDS011;28727;50.068;14.452;2023-04-28T04:37:45;24.25;;;13.63;;
43114;SDS011;28727;50.068;14.452;2023-04-28T04:40:26;27.75;;;14.82;;
43114;SDS011;28727;50.068;14.452;2023-04-28T04:42:59;22.20;;;13.68;;
43114;SDS011;28727;50.068;14.452;2023-04-28T04:45:33;22.17;;;13.00;;
43114;SDS011;28727;50.068;14.452;2023-04-28T04:48:05;25.90;;;13.48;;
43114;SDS011;28727;50.068;14.452;2023-04-28T04:50:38;24.50;;;13.82;;
43114;SDS011;28727;50.068;14.452;2023-04-28T04:53:11;25.50;;;14.20;;
43114;SDS011;28727;50.068;14.452;2023-04-28T04:55:47;25.88;;;14.50;;
43114;SDS011;28727;50.068;14.452;2023-04-28T04:58:20;27.45;;;13.68;;
43114;SDS011;28727;50.068;14.452;2023-04-28T05:01:21;26.92;;;14.50;;
43114;SDS011;28727;50.068;14.452;2023-04-28T05:03:54;28.67;;;13.93;;
43114;SDS011;28727;50.068;14.452;2023-04-28T05:06:26;28.15;;;14.70;;
43114;SDS011;28727;50.068;14.452;2023-04-28T05:08:59;33.15;;;15.65;;
43114;SDS011;28727;50.068;14.452;2023-04-28T05:11:31;24.90;;;13.73;;
43114;SDS011;28727;50.068;14.452;2023-04-28T05:14:02;24.65;;;13.65;;
43114;SDS011;28727;50.068;14.452;2023-04-28T05:16:34;22.52;;;12.95;;
43114;SDS011;28727;50.068;14.452;2023-04-28T05:19:33;26.40;;;14.52;;
43114;SDS011;28727;50.068;14.452;2023-04-28T05:22:06;25.50;;;13.57;;
43114;SDS011;28727;50.068;14.452;2023-04-28T05:24:40;24.48;;;13.98;;
43114;SDS011;28727;50.068;14.452;2023-04-28T05:27:11;21.75;;;12.60;;
43114;SDS011;28727;50.068;14.452;2023-04-28T05:29:43;20.95;;;12.57;;
43114;SDS011;28727;50.068;14.452;2023-04-28T05:32:17;25.50;;;12.77;;
43114;SDS011;28727;50.068;14.452;2023-04-28T05:34:48;19.50;;;12.13;;
43114;SDS011;28727;50.068;14.452;2023-04-28T05:37:21;21.42;;;12.63;;
43114;SDS011;28727;50.068;14.452;2023-04-28T05:39:54;27.50;;;12.55;;
43114;SDS011;28727;50.068;14.452;2023-04-28T05:42:29;21.33;;;12.32;;
43114;SDS011;28727;50.068;14.452;2023-04-28T05:45:04;22.42;;;11.80;;
43114;SDS011;28727;50.068;14.452;2023-04-28T05:47:37;24.70;;;12.88;;
43114;SDS011;28727;50.068;14.452;2023-04-28T05:50:09;21.30;;;12.35;;
43114;SDS011;28727;50.068;14.452;2023-04-28T05:52:41;30.33;;;12.25;;
43114;SDS011;28727;50.068;14.452;2023-04-28T05:55:13;27.23;;;12.35;;
43114;SDS011;28727;50.068;14.452;2023-04-28T05:57:49;21.10;;;11.90;;
43114;SDS011;28727;50.068;14.452;2023-04-28T06:00:25;20.23;;;12.13;;
43114;SDS011;28727;50.068;14.452;2023-04-28T06:03:01;25.05;;;13.18;;
43114;SDS011;28727;50.068;14.452;2023-04-28T06:05:33;22.92;;;11.80;;
43114;SDS011;28727;50.068;14.452;2023-04-28T06:08:05;20.52;;;11.85;;
43114;SDS011;28727;50.068;14.452;2023-04-28T06:10:38;23.13;;;12.30;;
43114;SDS011;28727;50.068;14.452;2023-04-28T06:13:14;20.17;;;10.57;;
43114;SDS011;28727;50.068;14.452;2023-04-28T06:15:46;23.75;;;11.15;;
43114;SDS011;28727;50.068;14.452;2023-04-28T06:18:18;21.92;;;11.07;;
43114;SDS011;28727;50.068;14.452;2023-04-28T06:20:53;18.00;;;9.73;;
43114;SDS011;28727;50.068;14.452;2023-04-28T06:23:25;23.95;;;10.32;;
43114;SDS011;28727;50.068;14.452;2023-04-28T06:25:57;14.95;;;8.98;;
43114;SDS011;28727;50.068;14.452;2023-04-28T06:28:29;16.42;;;9.65;;
43114;SDS011;28727;50.068;14.452;2023-04-28T06:31:06;16.15;;;9.20;;
43114;SDS011;28727;50.068;14.452;2023-04-28T06:33:43;14.05;;;8.93;;
43114;SDS011;28727;50.068;14.452;2023-04-28T06:36:14;20.27;;;9.43;;
43114;SDS011;28727;50.068;14.452;2023-04-28T06:38:48;11.43;;;6.87;;
43114;SDS011;28727;50.068;14.452;2023-04-28T06:41:21;14.13;;;9.90;;
43114;SDS011;28727;50.068;14.452;2023-04-28T06:43:56;18.38;;;9.73;;
43114;SDS011;28727;50.068;14.452;2023-04-28T06:46:30;18.13;;;9.57;;
43114;SDS011;28727;50.068;14.452;2023-04-28T06:49:02;20.48;;;9.75;;
43114;SDS011;28727;50.068;14.452;2023-04-28T06:51:33;16.35;;;9.93;;
43114;SDS011;28727;50.068;14.452;2023-04-28T06:54:05;18.63;;;9.93;;
43114;SDS011;28727;50.068;14.452;2023-04-28T06:56:37;15.98;;;9.43;;
43114;SDS011;28727;50.068;14.452;2023-04-28T06:59:12;19.83;;;11.52;;
43114;SDS011;28727;50.068;14.452;2023-04-28T07:01:44;28.00;;;10.43;;
43114;SDS011;28727;50.068;14.452;2023-04-28T07:04:16;20.63;;;10.00;;
43114;SDS011;28727;50.068;14.452;2023-04-28T07:06:48;14.90;;;8.50;;
43114;SDS011;28727;50.068;14.452;2023-04-28T07:09:20;14.45;;;8.57;;
43114;SDS011;28727;50.068;14.452;2023-04-28T07:11:52;17.63;;;9.27;;
43114;SDS011;28727;50.068;14.452;2023-04-28T07:14:24;17.60;;;9.85;;
43114;SDS011;28727;50.068;14.452;2023-04-28T07:16:56;17.30;;;9.50;;
43114;SDS011;28727;50.068;14.452;2023-04-28T07:19:28;15.55;;;8.90;;
43114;SDS011;28727;50.068;14.452;2023-04-28T07:21:59;16.05;;;9.50;;
43114;SDS011;28727;50.068;14.452;2023-04-28T07:24:31;17.33;;;9.10;;
43114;SDS011;28727;50.068;14.452;2023-04-28T07:27:03;15.23;;;8.45;;
43114;SDS011;28727;50.068;14.452;2023-04-28T07:29:35;15.20;;;8.90;;
43114;SDS011;28727;50.068;14.452;2023-04-28T07:32:07;24.23;;;10.20;;
43114;SDS011;28727;50.068;14.452;2023-04-28T07:34:41;13.35;;;8.93;;
43114;SDS011;28727;50.068;14.452;2023-04-28T07:37:12;17.75;;;9.65;;
43114;SDS011;28727;50.068;14.452;2023-04-28T07:39:44;18.90;;;8.98;;
43114;SDS011;28727;50.068;14.452;2023-04-28T07:42:16;16.90;;;8.95;;
43114;SDS011;28727;50.068;14.452;2023-04-28T07:44:51;14.93;;;8.23;;
43114;SDS011;28727;50.068;14.452;2023-04-28T07:47:23;16.20;;;9.20;;
43114;SDS011;28727;50.068;14.452;2023-04-28T07:49:55;13.00;;;8.38;;
43114;SDS011;28727;50.068;14.452;2023-04-28T07:52:27;10.95;;;8.65;;
43114;SDS011;28727;50.068;14.452;2023-04-28T07:54:59;15.77;;;8.82;;
43114;SDS011;28727;50.068;14.452;2023-04-28T07:57:33;12.67;;;7.63;;
43114;SDS011;28727;50.068;14.452;2023-04-28T08:00:06;16.63;;;8.63;;
43114;SDS011;28727;50.068;14.452;2023-04-28T08:02:44;16.52;;;7.65;;
43114;SDS011;28727;50.068;14.452;2023-04-28T08:05:16;14.07;;;7.72;;
43114;SDS011;28727;50.068;14.452;2023-04-28T08:07:49;12.82;;;7.10;;
43114;SDS011;28727;50.068;14.452;2023-04-28T08:10:24;12.85;;;7.22;;
43114;SDS011;28727;50.068;14.452;2023-04-28T08:12:57;14.07;;;7.20;;
43114;SDS011;28727;50.068;14.452;2023-04-28T08:15:29;15.18;;;7.72;;
43114;SDS011;28727;50.068;14.452;2023-04-28T08:18:02;14.02;;;6.82;;
43114;SDS011;28727;50.068;14.452;2023-04-28T08:20:34;15.90;;;7.15;;
43114;SDS011;28727;50.068;14.452;2023-04-28T08:23:07;12.00;;;7.20;;
43114;SDS011;28727;50.068;14.452;2023-04-28T08:25:39;14.02;;;7.00;;
43114;SDS011;28727;50.068;14.452;2023-04-28T08:28:12;11.82;;;7.60;;
43114;SDS011;28727;50.068;14.452;2023-04-28T08:30:44;17.38;;;7.82;;
43114;SDS011;28727;50.068;14.452;2023-04-28T08:33:16;13.88;;;7.78;;
43114;SDS011;28727;50.068;14.452;2023-04-28T08:35:48;16.60;;;6.75;;
43114;SDS011;28727;50.068;14.452;2023-04-28T08:38:21;13.32;;;7.15;;
43114;SDS011;28727;50.068;14.452;2023-04-28T08:40:55;13.15;;;7.45;;
43114;SDS011;28727;50.068;14.452;2023-04-28T08:43:27;12.32;;;6.97;;
43114;SDS011;28727;50.068;14.452;2023-04-28T08:46:02;13.05;;;6.88;;
43114;SDS011;28727;50.068;14.452;2023-04-28T08:48:41;12.90;;;7.47;;
43114;SDS011;28727;50.068;14.452;2023-04-28T08:51:22;14.20;;;7.20;;
43114;SDS011;28727;50.068;14.452;2023-04-28T08:53:59;10.50;;;6.23;;
43114;SDS011;28727;50.068;14.452;2023-04-28T08:56:54;15.57;;;7.30;;
43114;SDS011;28727;50.068;14.452;2023-04-28T08:59:27;12.60;;;6.28;;
43114;SDS011;28727;50.068;14.452;2023-04-28T09:01:59;12.40;;;6.78;;
43114;SDS011;28727;50.068;14.452;2023-04-28T09:04:31;11.23;;;6.72;;
43114;SDS011;28727;50.068;14.452;2023-04-28T09:07:09;11.00;;;7.75;;
43114;SDS011;28727;50.068;14.452;2023-04-28T09:09:42;15.98;;;6.80;;
43114;SDS011;28727;50.068;14.452;2023-04-28T09:12:15;11.45;;;6.75;;
43114;SDS011;28727;50.068;14.452;2023-04-28T09:14:48;11.48;;;6.50;;
43114;SDS011;28727;50.068;14.452;2023-04-28T09:17:28;12.02;;;6.03;;
43114;SDS011;28727;50.068;14.452;2023-04-28T09:20:00;11.68;;;6.05;;
43114;SDS011;28727;50.068;14.452;2023-04-28T09:22:34;15.15;;;5.95;;
43114;SDS011;28727;50.068;14.452;2023-04-28T09:25:10;9.77;;;5.40;;
43114;SDS011;28727;50.068;14.452;2023-04-28T09:27:42;10.73;;;5.77;;
43114;SDS011;28727;50.068;14.452;2023-04-28T09:30:14;10.93;;;5.60;;
43114;SDS011;28727;50.068;14.452;2023-04-28T09:32:50;13.45;;;5.50;;
43114;SDS011;28727;50.068;14.452;2023-04-28T09:35:38;10.73;;;4.68;;
43114;SDS011;28727;50.068;14.452;2023-04-28T09:38:11;10.02;;;4.70;;
43114;SDS011;28727;50.068;14.452;2023-04-28T09:40:50;9.50;;;4.45;;
43114;SDS011;28727;50.068;14.452;2023-04-28T09:43:32;8.55;;;3.92;;
43114;SDS011;28727;50.068;14.452;2023-04-28T09:46:05;8.63;;;4.15;;
43114;SDS011;28727;50.068;14.452;2023-04-28T09:48:37;6.03;;;4.25;;
43114;SDS011;28727;50.068;14.452;2023-04-28T09:51:09;9.80;;;4.75;;
43114;SDS011;28727;50.068;14.452;2023-04-28T09:53:43;8.02;;;4.10;;
43114;SDS011;28727;50.068;14.452;2023-04-28T09:56:15;11.57;;;4.57;;
43114;SDS011;28727;50.068;14.452;2023-04-28T09:58:51;12.18;;;4.72;;
43114;SDS011;28727;50.068;14.452;2023-04-28T10:01:26;12.65;;;5.05;;
43114;SDS011;28727;50.068;14.452;2023-04-28T10:06:33;7.97;;;4.18;;
43114;SDS011;28727;50.068;14.452;2023-04-28T10:09:09;12.10;;;3.45;;
43114;SDS011;28727;50.068;14.452;2023-04-28T10:11:42;8.67;;;4.53;;
43114;SDS011;28727;50.068;14.452;2023-04-28T10:14:14;13.55;;;6.85;;
43114;SDS011;28727;50.068;14.452;2023-04-28T10:16:46;15.02;;;5.97;;
43114;SDS011;28727;50.068;14.452;2023-04-28T10:19:18;15.43;;;5.15;;
43114;SDS011;28727;50.068;14.452;2023-04-28T10:21:54;9.88;;;4.57;;
43114;SDS011;28727;50.068;14.452;2023-04-28T10:27:39;13.73;;;5.57;;
43114;SDS011;28727;50.068;14.452;2023-04-28T10:35:43;10.60;;;3.15;;
43114;SDS011;28727;50.068;14.452;2023-04-28T10:38:19;5.43;;;2.42;;
43114;SDS011;28727;50.068;14.452;2023-04-28T10:40:54;7.03;;;2.80;;
43114;SDS011;28727;50.068;14.452;2023-04-28T10:43:31;7.07;;;2.90;;
43114;SDS011;28727;50.068;14.452;2023-04-28T10:46:05;5.43;;;2.70;;
43114;SDS011;28727;50.068;14.452;2023-04-28T10:56:26;10.60;;;2.90;;
43114;SDS011;28727;50.068;14.452;2023-04-28T10:58:58;4.47;;;2.30;;
43114;SDS011;28727;50.068;14.452;2023-04-28T11:01:30;5.53;;;2.85;;
43114;SDS011;28727;50.068;14.452;2023-04-28T11:04:06;41.92;;;4.88;;
43114;SDS011;28727;50.068;14.452;2023-04-28T11:06:44;6.30;;;2.80;;
43114;SDS011;28727;50.068;14.452;2023-04-28T11:14:30;4.90;;;2.53;;
43114;SDS011;28727;50.068;14.452;2023-04-28T11:17:05;7.53;;;2.60;;
43114;SDS011;28727;50.068;14.452;2023-04-28T11:19:42;3.78;;;2.30;;
43114;SDS011;28727;50.068;14.452;2023-04-28T11:22:19;5.78;;;2.35;;
43114;SDS011;28727;50.068;14.452;2023-04-28T11:24:59;6.30;;;2.85;;
43114;SDS011;28727;50.068;14.452;2023-04-28T11:27:35;8.48;;;2.67;;
43114;SDS011;28727;50.068;14.452;2023-04-28T11:30:20;5.65;;;2.83;;
43114;SDS011;28727;50.068;14.452;2023-04-28T11:32:53;5.53;;;2.40;;
43114;SDS011;28727;50.068;14.452;2023-04-28T11:35:30;4.38;;;2.53;;
43114;SDS011;28727;50.068;14.452;2023-04-28T11:38:11;9.30;;;2.47;;
43114;SDS011;28727;50.068;14.452;2023-04-28T11:40:55;6.63;;;2.83;;
43114;SDS011;28727;50.068;14.452;2023-04-28T11:43:28;3.55;;;2.63;;
43114;SDS011;28727;50.068;14.452;2023-04-28T11:46:20;5.18;;;3.03;;
43114;SDS011;28727;50.068;14.452;2023-04-28T11:49:04;7.97;;;2.80;;
43114;SDS011;28727;50.068;14.452;2023-04-28T11:51:36;4.63;;;2.60;;
43114;SDS011;28727;50.068;14.452;2023-04-28T11:54:09;5.03;;;3.08;;
43114;SDS011;28727;50.068;14.452;2023-04-28T11:56:45;6.15;;;2.85;;
43114;SDS011;28727;50.068;14.452;2023-04-28T11:59:17;5.07;;;2.40;;
43114;SDS011;28727;50.068;14.452;2023-04-28T12:01:52;7.35;;;3.08;;
43114;SDS011;28727;50.068;14.452;2023-04-28T12:04:32;6.70;;;2.65;;
43114;SDS011;28727;50.068;14.452;2023-04-28T12:10:09;7.20;;;3.17;;
43114;SDS011;28727;50.068;14.452;2023-04-28T12:12:41;6.95;;;3.17;;
43114;SDS011;28727;50.068;14.452;2023-04-28T12:15:21;5.50;;;2.97;;
43114;SDS011;28727;50.068;14.452;2023-04-28T12:17:55;5.32;;;3.10;;
43114;SDS011;28727;50.068;14.452;2023-04-28T12:23:12;4.53;;;2.60;;
43114;SDS011;28727;50.068;14.452;2023-04-28T12:28:19;6.38;;;3.20;;
43114;SDS011;28727;50.068;14.452;2023-04-28T12:31:01;5.22;;;3.30;;
43114;SDS011;28727;50.068;14.452;2023-04-28T12:33:35;7.25;;;3.30;;
43114;SDS011;28727;50.068;14.452;2023-04-28T12:36:10;8.10;;;4.18;;
43114;SDS011;28727;50.068;14.452;2023-04-28T12:38:46;6.10;;;3.25;;
43114;SDS011;28727;50.068;14.452;2023-04-28T12:41:19;5.40;;;3.40;;
43114;SDS011;28727;50.068;14.452;2023-04-28T12:43:51;6.60;;;3.40;;
43114;SDS011;28727;50.068;14.452;2023-04-28T12:46:26;7.50;;;3.75;;
43114;SDS011;28727;50.068;14.452;2023-04-28T12:48:58;5.88;;;3.42;;
43114;SDS011;28727;50.068;14.452;2023-04-28T12:51:30;6.97;;;3.28;;
43114;SDS011;28727;50.068;14.452;2023-04-28T12:54:08;6.03;;;3.95;;
43114;SDS011;28727;50.068;14.452;2023-04-28T12:56:40;6.88;;;3.50;;
43114;SDS011;28727;50.068;14.452;2023-04-28T12:59:11;6.07;;;3.45;;
43114;SDS011;28727;50.068;14.452;2023-04-28T13:01:48;6.68;;;3.90;;
43114;SDS011;28727;50.068;14.452;2023-04-28T13:04:20;9.32;;;3.65;;
43114;SDS011;28727;50.068;14.452;2023-04-28T13:06:53;8.77;;;4.28;;
43114;SDS011;28727;50.068;14.452;2023-04-28T13:09:29;5.95;;;3.90;;
43114;SDS011;28727;50.068;14.452;2023-04-28T13:12:01;9.63;;;3.55;;
43114;SDS011;28727;50.068;14.452;2023-04-28T13:14:34;10.00;;;4.20;;
43114;SDS011;28727;50.068;14.452;2023-04-28T13:17:06;7.00;;;3.30;;
43114;SDS011;28727;50.068;14.452;2023-04-28T13:19:38;6.50;;;4.10;;
43114;SDS011;28727;50.068;14.452;2023-04-28T13:22:14;7.50;;;3.60;;
43114;SDS011;28727;50.068;14.452;2023-04-28T13:24:46;6.80;;;3.60;;
43114;SDS011;28727;50.068;14.452;2023-04-28T13:27:18;6.18;;;3.72;;
43114;SDS011;28727;50.068;14.452;2023-04-28T13:29:50;5.45;;;3.47;;
43114;SDS011;28727;50.068;14.452;2023-04-28T13:32:22;8.00;;;3.60;;
43114;SDS011;28727;50.068;14.452;2023-04-28T13:34:55;7.03;;;3.88;;
43114;SDS011;28727;50.068;14.452;2023-04-28T13:37:27;5.18;;;3.67;;
43114;SDS011;28727;50.068;14.452;2023-04-28T13:39:59;8.85;;;4.32;;
43114;SDS011;28727;50.068;14.452;2023-04-28T13:42:34;6.47;;;4.38;;
43114;SDS011;28727;50.068;14.452;2023-04-28T13:45:07;8.80;;;4.72;;
43114;SDS011;28727;50.068;14.452;2023-04-28T13:47:42;12.07;;;4.97;;
43114;SDS011;28727;50.068;14.452;2023-04-28T13:50:14;9.60;;;5.50;;
43114;SDS011;28727;50.068;14.452;2023-04-28T13:52:46;9.10;;;4.90;;
43114;SDS011;28727;50.068;14.452;2023-04-28T13:55:21;10.57;;;4.72;;
43114;SDS011;28727;50.068;14.452;2023-04-28T13:57:58;7.18;;;4.68;;
43114;SDS011;28727;50.068;14.452;2023-04-28T14:00:34;7.93;;;4.60;;
43114;SDS011;28727;50.068;14.452;2023-04-28T14:03:08;8.30;;;4.82;;
43114;SDS011;28727;50.068;14.452;2023-04-28T14:05:40;9.27;;;5.32;;
43114;SDS011;28727;50.068;14.452;2023-04-28T14:08:20;7.93;;;4.32;;
43114;SDS011;28727;50.068;14.452;2023-04-28T14:10:52;5.60;;;4.20;;
43114;SDS011;28727;50.068;14.452;2023-04-28T14:13:24;7.93;;;4.25;;
43114;SDS011;28727;50.068;14.452;2023-04-28T14:15:57;7.47;;;4.60;;
43114;SDS011;28727;50.068;14.452;2023-04-28T14:18:30;6.13;;;4.20;;
43114;SDS011;28727;50.068;14.452;2023-04-28T14:21:04;6.30;;;4.47;;
43114;SDS011;28727;50.068;14.452;2023-04-28T14:23:38;8.75;;;4.18;;
43114;SDS011;28727;50.068;14.452;2023-04-28T14:26:11;6.72;;;3.50;;
43114;SDS011;28727;50.068;14.452;2023-04-28T14:28:43;9.98;;;4.10;;
43114;SDS011;28727;50.068;14.452;2023-04-28T14:31:14;6.10;;;4.00;;
43114;SDS011;28727;50.068;14.452;2023-04-28T14:33:46;10.13;;;4.57;;
43114;SDS011;28727;50.068;14.452;2023-04-28T14:36:19;8.88;;;3.80;;
43114;SDS011;28727;50.068;14.452;2023-04-28T14:38:51;5.10;;;3.58;;
43114;SDS011;28727;50.068;14.452;2023-04-28T14:41:23;7.20;;;4.30;;
43114;SDS011;28727;50.068;14.452;2023-04-28T14:43:56;9.63;;;4.25;;
43114;SDS011;28727;50.068;14.452;2023-04-28T14:46:27;7.97;;;3.70;;
43114;SDS011;28727;50.068;14.452;2023-04-28T14:49:00;5.32;;;3.70;;
43114;SDS011;28727;50.068;14.452;2023-04-28T14:51:33;7.68;;;3.92;;
43114;SDS011;28727;50.068;14.452;2023-04-28T14:54:07;7.28;;;4.10;;
43114;SDS011;28727;50.068;14.452;2023-04-28T14:56:42;8.00;;;4.95;;
43114;SDS011;28727;50.068;14.452;2023-04-28T14:59:14;7.93;;;4.18;;
43114;SDS011;28727;50.068;14.452;2023-04-28T15:01:48;9.45;;;4.60;;
43114;SDS011;28727;50.068;14.452;2023-04-28T15:04:22;9.50;;;5.10;;
43114;SDS011;28727;50.068;14.452;2023-04-28T15:07:00;9.68;;;4.85;;
43114;SDS011;28727;50.068;14.452;2023-04-28T15:09:32;8.85;;;5.80;;
43114;SDS011;28727;50.068;14.452;2023-04-28T15:12:05;9.15;;;5.57;;
43114;SDS011;28727;50.068;14.452;2023-04-28T15:14:37;8.85;;;5.13;;
43114;SDS011;28727;50.068;14.452;2023-04-28T15:17:12;9.65;;;4.40;;
43114;SDS011;28727;50.068;14.452;2023-04-28T15:19:44;8.50;;;4.75;;
43114;SDS011;28727;50.068;14.452;2023-04-28T15:22:17;8.18;;;5.07;;
43114;SDS011;28727;50.068;14.452;2023-04-28T15:24:49;9.90;;;6.45;;
43114;SDS011;28727;50.068;14.452;2023-04-28T15:27:22;9.10;;;5.53;;
43114;SDS011;28727;50.068;14.452;2023-04-28T15:29:57;8.18;;;4.32;;
43114;SDS011;28727;50.068;14.452;2023-04-28T15:32:30;6.93;;;4.00;;
43114;SDS011;28727;50.068;14.452;2023-04-28T15:35:02;7.05;;;4.35;;